sensor_id;sensor_type;location;lat;lon;timestamp;pressure;altitude;pressure_sealevel;temperature;humidity
28606;BME280;46498;49.968;7.754;2022-11-20T00:02:15;96556.00;;;0.64;100.00
28606;BME280;46498;49.968;7.754;2022-11-20T00:07:16;96546.00;;;0.47;100.00
28606;BME280;46498;49.968;7.754;2022-11-20T00:12:17;96550.00;;;0.50;100.00
28606;BME280;46498;49.968;7.754;2022-11-20T00:17:18;96540.00;;;0.47;100.00
28606;BME280;46498;49.968;7.754;2022-11-20T00:22:19;96535.00;;;0.57;100.00
28606;BME280;46498;49.968;7.754;2022-11-20T00:27:20;96532.00;;;0.47;100.00
28606;BME280;46498;49.968;7.754;2022-11-20T00:32:21;96535.00;;;0.42;100.00
28606;BME280;46498;49.968;7.754;2022-11-20T00:37:22;96540.00;;;0.47;100.00
28606;BME280;46498;49.968;7.754;2022-11-20T00:42:23;96537.00;;;0.50;100.00
28606;BME280;46498;49.968;7.754;2022-11-20T00:47:24;96525.00;;;0.44;100.00
28606;BME280;46498;49.968;7.754;2022-11-20T00:52:25;96532.00;;;0.45;100.00
28606;BME280;46498;49.968;7.754;2022-11-20T00:57:26;96537.00;;;0.40;100.00
28606;BME280;46498;49.968;7.754;2022-11-20T01:02:26;96528.00;;;0.27;100.00
28606;BME280;46498;49.968;7.754;2022-11-20T01:07:27;96535.00;;;0.44;100.00
28606;BME280;46498;49.968;7.754;2022-11-20T01:12:28;96535.00;;;0.37;100.00
28606;BME280;46498;49.968;7.754;2022-11-20T01:17:31;96529.00;;;0.32;100.00
28606;BME280;46498;49.968;7.754;2022-11-20T01:22:32;96531.00;;;0.38;100.00
28606;BME280;46498;49.968;7.754;2022-11-20T01:27:33;96525.00;;;0.43;100.00
28606;BME280;46498;49.968;7.754;2022-11-20T01:32:33;96525.00;;;0.53;100.00
28606;BME280;46498;49.968;7.754;2022-11-20T01:37:34;96531.00;;;0.48;100.00
28606;BME280;46498;49.968;7.754;2022-11-20T01:42:35;96529.00;;;0.42;100.00
28606;BME280;46498;49.968;7.754;2022-11-20T01:47:55;96523.00;;;0.51;100.00
28606;BME280;46498;49.968;7.754;2022-11-20T01:53:02;96524.00;;;0.70;100.00
28606;BME280;46498;49.968;7.754;2022-11-20T01:58:05;96521.00;;;0.62;100.00
28606;BME280;46498;49.968;7.754;2022-11-20T02:03:12;96502.00;;;0.81;100.00
28606;BME280;46498;49.968;7.754;2022-11-20T02:08:15;96500.00;;;0.83;100.00
28606;BME280;46498;49.968;7.754;2022-11-20T02:13:16;96513.00;;;0.79;100.00
28606;BME280;46498;49.968;7.754;2022-11-20T02:18:35;96508.00;;;0.95;100.00
28606;BME280;46498;49.968;7.754;2022-11-20T02:23:55;96504.00;;;1.07;100.00
28606;BME280;46498;49.968;7.754;2022-11-20T02:28:59;96498.00;;;1.10;100.00
28606;BME280;46498;49.968;7.754;2022-11-20T02:34:00;96488.00;;;1.05;100.00
28606;BME280;46498;49.968;7.754;2022-11-20T02:39:02;96485.00;;;0.84;100.00
28606;BME280;46498;49.968;7.754;2022-11-20T02:44:05;96487.00;;;0.99;100.00
28606;BME280;46498;49.968;7.754;2022-11-20T02:49:06;96488.00;;;1.00;100.00
28606;BME280;46498;49.968;7.754;2022-11-20T02:54:07;96485.00;;;0.93;100.00
28606;BME280;46498;49.968;7.754;2022-11-20T02:59:08;96490.00;;;1.03;100.00
28606;BME280;46498;49.968;7.754;2022-11-20T03:04:08;96486.00;;;1.14;100.00
28606;BME280;46498;49.968;7.754;2022-11-20T03:09:09;96490.00;;;1.15;100.00
28606;BME280;46498;49.968;7.754;2022-11-20T03:14:10;96490.00;;;1.01;100.00
28606;BME280;46498;49.968;7.754;2022-11-20T03:19:11;96483.00;;;1.00;100.00
28606;BME280;46498;49.968;7.754;2022-11-20T03:24:13;96488.00;;;1.10;100.00
28606;BME280;46498;49.968;7.754;2022-11-20T03:29:13;96480.00;;;1.15;100.00
28606;BME280;46498;49.968;7.754;2022-11-20T03:34:14;96472.00;;;1.05;100.00
28606;BME280;46498;49.968;7.754;2022-11-20T03:39:15;96463.00;;;1.08;100.00
28606;BME280;46498;49.968;7.754;2022-11-20T03:44:16;96468.00;;;1.18;100.00
28606;BME280;46498;49.968;7.754;2022-11-20T03:49:17;96461.00;;;1.20;100.00
28606;BME280;46498;49.968;7.754;2022-11-20T03:54:18;96463.00;;;1.08;100.00
28606;BME280;46498;49.968;7.754;2022-11-20T03:59:18;96464.00;;;1.12;100.00
28606;BME280;46498;49.968;7.754;2022-11-20T04:04:20;96464.00;;;1.22;100.00
28606;BME280;46498;49.968;7.754;2022-11-20T04:09:21;96463.00;;;1.30;100.00
28606;BME280;46498;49.968;7.754;2022-11-20T04:14:22;96459.00;;;1.09;100.00
28606;BME280;46498;49.968;7.754;2022-11-20T04:19:23;96458.00;;;1.05;100.00
28606;BME280;46498;49.968;7.754;2022-11-20T04:24:24;96454.00;;;0.86;100.00
28606;BME280;46498;49.968;7.754;2022-11-20T04:29:25;96456.00;;;0.93;100.00
28606;BME280;46498;49.968;7.754;2022-11-20T04:34:25;96452.00;;;0.97;100.00
28606;BME280;46498;49.968;7.754;2022-11-20T04:39:26;96456.00;;;1.10;100.00
28606;BME280;46498;49.968;7.754;2022-11-20T04:44:27;96456.00;;;1.00;100.00
28606;BME280;46498;49.968;7.754;2022-11-20T04:49:28;96457.00;;;1.07;100.00
28606;BME280;46498;49.968;7.754;2022-11-20T04:54:29;96450.00;;;0.89;100.00
28606;BME280;46498;49.968;7.754;2022-11-20T04:59:30;96461.00;;;0.89;100.00
28606;BME280;46498;49.968;7.754;2022-11-20T05:04:31;96457.00;;;0.97;100.00
28606;BME280;46498;49.968;7.754;2022-11-20T05:09:32;96448.00;;;0.89;100.00
28606;BME280;46498;49.968;7.754;2022-11-20T05:14:32;96452.00;;;1.01;100.00
28606;BME280;46498;49.968;7.754;2022-11-20T05:19:33;96449.00;;;0.94;100.00
28606;BME280;46498;49.968;7.754;2022-11-20T05:24:34;96452.00;;;1.25;100.00
28606;BME280;46498;49.968;7.754;2022-11-20T05:29:35;96441.00;;;1.14;100.00
28606;BME280;46498;49.968;7.754;2022-11-20T05:34:36;96437.00;;;1.12;100.00
28606;BME280;46498;49.968;7.754;2022-11-20T05:39:36;96434.00;;;1.22;100.00
28606;BME280;46498;49.968;7.754;2022-11-20T05:44:37;96425.00;;;1.21;100.00
28606;BME280;46498;49.968;7.754;2022-11-20T05:49:38;96430.00;;;1.22;100.00
28606;BME280;46498;49.968;7.754;2022-11-20T05:54:39;96428.00;;;1.35;100.00
28606;BME280;46498;49.968;7.754;2022-11-20T05:59:40;96427.00;;;1.29;100.00
28606;BME280;46498;49.968;7.754;2022-11-20T06:04:41;96439.00;;;1.30;100.00
28606;BME280;46498;49.968;7.754;2022-11-20T06:09:42;96432.00;;;1.33;100.00
28606;BME280;46498;49.968;7.754;2022-11-20T06:14:43;96447.00;;;1.39;100.00
28606;BME280;46498;49.968;7.754;2022-11-20T06:19:44;96439.00;;;1.37;100.00
28606;BME280;46498;49.968;7.754;2022-11-20T06:24:44;96432.00;;;1.36;100.00
28606;BME280;46498;49.968;7.754;2022-11-20T06:29:45;96433.00;;;1.45;100.00
28606;BME280;46498;49.968;7.754;2022-11-20T06:34:46;96432.00;;;1.51;100.00
28606;BME280;46498;49.968;7.754;2022-11-20T06:39:47;96438.00;;;1.56;100.00
28606;BME280;46498;49.968;7.754;2022-11-20T06:44:48;96441.00;;;1.58;100.00
28606;BME280;46498;49.968;7.754;2022-11-20T06:49:49;96438.00;;;1.53;100.00
28606;BME280;46498;49.968;7.754;2022-11-20T06:54:50;96443.00;;;1.60;100.00
28606;BME280;46498;49.968;7.754;2022-11-20T06:59:50;96445.00;;;1.55;100.00
28606;BME280;46498;49.968;7.754;2022-11-20T07:04:51;96444.00;;;1.56;100.00
28606;BME280;46498;49.968;7.754;2022-11-20T07:09:52;96453.00;;;1.60;100.00
28606;BME280;46498;49.968;7.754;2022-11-20T07:14:53;96452.00;;;1.47;100.00
28606;BME280;46498;49.968;7.754;2022-11-20T07:19:54;96462.00;;;1.50;100.00
28606;BME280;46498;49.968;7.754;2022-11-20T07:24:55;96468.00;;;1.50;100.00
28606;BME280;46498;49.968;7.754;2022-11-20T07:29:56;96467.00;;;1.74;100.00
28606;BME280;46498;49.968;7.754;2022-11-20T07:34:57;96455.00;;;1.51;100.00
28606;BME280;46498;49.968;7.754;2022-11-20T07:39:57;96465.00;;;1.33;100.00
28606;BME280;46498;49.968;7.754;2022-11-20T07:44:58;96480.00;;;1.41;100.00
28606;BME280;46498;49.968;7.754;2022-11-20T07:49:59;96472.00;;;1.50;100.00
28606;BME280;46498;49.968;7.754;2022-11-20T07:55:00;96481.00;;;1.54;100.00
28606;BME280;46498;49.968;7.754;2022-11-20T08:00:04;96478.00;;;1.66;100.00
28606;BME280;46498;49.968;7.754;2022-11-20T08:05:12;96487.00;;;1.58;100.00
28606;BME280;46498;49.968;7.754;2022-11-20T08:10:14;96490.00;;;1.68;100.00
28606;BME280;46498;49.968;7.754;2022-11-20T08:15:16;96488.00;;;1.77;100.00
28606;BME280;46498;49.968;7.754;2022-11-20T08:20:17;96483.00;;;1.84;100.00
28606;BME280;46498;49.968;7.754;2022-11-20T08:25:18;96492.00;;;1.95;100.00
28606;BME280;46498;49.968;7.754;2022-11-20T08:30:19;96496.00;;;1.95;100.00
28606;BME280;46498;49.968;7.754;2022-11-20T08:35:20;96504.00;;;2.05;100.00
28606;BME280;46498;49.968;7.754;2022-11-20T08:40:21;96504.00;;;2.19;100.00
28606;BME280;46498;49.968;7.754;2022-11-20T08:45:22;96508.00;;;2.43;100.00
28606;BME280;46498;49.968;7.754;2022-11-20T08:50:23;96512.00;;;2.48;100.00
28606;BME280;46498;49.968;7.754;2022-11-20T08:55:24;96519.00;;;2.56;100.00
28606;BME280;46498;49.968;7.754;2022-11-20T09:00:25;96514.00;;;2.58;100.00
28606;BME280;46498;49.968;7.754;2022-11-20T09:05:27;96521.00;;;2.74;100.00
28606;BME280;46498;49.968;7.754;2022-11-20T09:10:28;96522.00;;;2.92;100.00
28606;BME280;46498;49.968;7.754;2022-11-20T09:15:29;96519.00;;;2.99;100.00
28606;BME280;46498;49.968;7.754;2022-11-20T09:20:30;96528.00;;;3.15;100.00
28606;BME280;46498;49.968;7.754;2022-11-20T09:25:31;96527.00;;;3.13;100.00
28606;BME280;46498;49.968;7.754;2022-11-20T09:30:32;96526.00;;;3.21;100.00
28606;BME280;46498;49.968;7.754;2022-11-20T09:35:33;96514.00;;;3.35;100.00
28606;BME280;46498;49.968;7.754;2022-11-20T09:40:35;96522.00;;;3.37;100.00
28606;BME280;46498;49.968;7.754;2022-11-20T09:46:01;96521.00;;;3.42;100.00
28606;BME280;46498;49.968;7.754;2022-11-20T09:53:52;96518.00;;;3.38;100.00
28606;BME280;46498;49.968;7.754;2022-11-20T09:58:59;96526.00;;;3.47;100.00
28606;BME280;46498;49.968;7.754;2022-11-20T10:04:19;96524.00;;;3.56;100.00
28606;BME280;46498;49.968;7.754;2022-11-20T10:09:27;96517.00;;;3.67;100.00
28606;BME280;46498;49.968;7.754;2022-11-20T10:16:17;96519.00;;;3.75;100.00
28606;BME280;46498;49.968;7.754;2022-11-20T10:30:14;96507.00;;;4.13;100.00
28606;BME280;46498;49.968;7.754;2022-11-20T10:35:42;96500.00;;;4.24;100.00
28606;BME280;46498;49.968;7.754;2022-11-20T10:40:49;96493.00;;;4.29;100.00
28606;BME280;46498;49.968;7.754;2022-11-20T10:46:52;96490.00;;;4.33;100.00
28606;BME280;46498;49.968;7.754;2022-11-20T10:52:06;96486.00;;;4.58;100.00
28606;BME280;46498;49.968;7.754;2022-11-20T10:57:51;96480.00;;;4.73;100.00
28606;BME280;46498;49.968;7.754;2022-11-20T11:02:54;96478.00;;;4.74;100.00
28606;BME280;46498;49.968;7.754;2022-11-20T11:07:58;96471.00;;;5.01;100.00
28606;BME280;46498;49.968;7.754;2022-11-20T11:12:59;96466.00;;;5.01;100.00
28606;BME280;46498;49.968;7.754;2022-11-20T11:18:00;96461.00;;;5.18;100.00
28606;BME280;46498;49.968;7.754;2022-11-20T11:23:01;96457.00;;;5.26;100.00
28606;BME280;46498;49.968;7.754;2022-11-20T11:28:21;96451.00;;;5.47;100.00
28606;BME280;46498;49.968;7.754;2022-11-20T11:33:27;96443.00;;;5.70;100.00
28606;BME280;46498;49.968;7.754;2022-11-20T11:38:40;96445.00;;;5.46;100.00
28606;BME280;46498;49.968;7.754;2022-11-20T11:43:51;96440.00;;;5.35;100.00
28606;BME280;46498;49.968;7.754;2022-11-20T11:49:18;96435.00;;;5.28;100.00
28606;BME280;46498;49.968;7.754;2022-11-20T11:54:24;96436.00;;;5.41;100.00
28606;BME280;46498;49.968;7.754;2022-11-20T11:59:44;96427.00;;;5.42;100.00
28606;BME280;46498;49.968;7.754;2022-11-20T12:04:51;96425.00;;;5.52;100.00
28606;BME280;46498;49.968;7.754;2022-11-20T12:09:56;96421.00;;;5.62;100.00
28606;BME280;46498;49.968;7.754;2022-11-20T12:14:58;96403.00;;;5.60;100.00
28606;BME280;46498;49.968;7.754;2022-11-20T12:19:59;96410.00;;;5.69;100.00
28606;BME280;46498;49.968;7.754;2022-11-20T12:25:11;96403.00;;;5.73;100.00
28606;BME280;46498;49.968;7.754;2022-11-20T12:30:16;96407.00;;;5.78;100.00
28606;BME280;46498;49.968;7.754;2022-11-20T12:49:34;96391.00;;;5.94;100.00
28606;BME280;46498;49.968;7.754;2022-11-20T13:02:01;96374.00;;;6.10;100.00
28606;BME280;46498;49.968;7.754;2022-11-20T13:07:09;96383.00;;;6.13;100.00
28606;BME280;46498;49.968;7.754;2022-11-20T13:12:22;96375.00;;;6.15;100.00
28606;BME280;46498;49.968;7.754;2022-11-20T13:17:36;96370.00;;;6.13;100.00
28606;BME280;46498;49.968;7.754;2022-11-20T13:22:55;96379.00;;;6.28;100.00
28606;BME280;46498;49.968;7.754;2022-11-20T13:28:00;96367.00;;;6.18;100.00
28606;BME280;46498;49.968;7.754;2022-11-20T13:33:08;96359.00;;;6.22;100.00
28606;BME280;46498;49.968;7.754;2022-11-20T13:38:21;96351.00;;;5.98;100.00
28606;BME280;46498;49.968;7.754;2022-11-20T13:43:43;96342.00;;;5.95;100.00
28606;BME280;46498;49.968;7.754;2022-11-20T13:48:46;96343.00;;;5.92;100.00
28606;BME280;46498;49.968;7.754;2022-11-20T13:54:04;96340.00;;;5.83;100.00
28606;BME280;46498;49.968;7.754;2022-11-20T14:04:45;96335.00;;;5.91;100.00
28606;BME280;46498;49.968;7.754;2022-11-20T14:09:52;96331.00;;;5.83;100.00
28606;BME280;46498;49.968;7.754;2022-11-20T14:14:54;96327.00;;;5.73;100.00
28606;BME280;46498;49.968;7.754;2022-11-20T14:19:58;96320.00;;;5.72;100.00
28606;BME280;46498;49.968;7.754;2022-11-20T14:25:25;96307.00;;;5.67;100.00
28606;BME280;46498;49.968;7.754;2022-11-20T14:31:08;96313.00;;;5.83;100.00
28606;BME280;46498;49.968;7.754;2022-11-20T14:36:20;96301.00;;;5.65;100.00
28606;BME280;46498;49.968;7.754;2022-11-20T14:41:23;96295.00;;;5.63;100.00
28606;BME280;46498;49.968;7.754;2022-11-20T14:46:25;96304.00;;;5.46;100.00
28606;BME280;46498;49.968;7.754;2022-11-20T14:51:30;96283.00;;;5.40;100.00
28606;BME280;46498;49.968;7.754;2022-11-20T14:56:32;96280.00;;;5.45;100.00
28606;BME280;46498;49.968;7.754;2022-11-20T15:01:33;96273.00;;;5.44;100.00
28606;BME280;46498;49.968;7.754;2022-11-20T15:06:35;96279.00;;;5.34;100.00
28606;BME280;46498;49.968;7.754;2022-11-20T15:11:35;96270.00;;;5.45;100.00
28606;BME280;46498;49.968;7.754;2022-11-20T15:16:36;96259.00;;;5.36;100.00
28606;BME280;46498;49.968;7.754;2022-11-20T15:21:37;96264.00;;;5.33;100.00
28606;BME280;46498;49.968;7.754;2022-11-20T15:26:38;96277.00;;;5.21;100.00
28606;BME280;46498;49.968;7.754;2022-11-20T15:31:40;96272.00;;;5.31;100.00
28606;BME280;46498;49.968;7.754;2022-11-20T15:36:43;96268.00;;;5.19;100.00
28606;BME280;46498;49.968;7.754;2022-11-20T15:41:45;96257.00;;;5.12;100.00
28606;BME280;46498;49.968;7.754;2022-11-20T15:46:45;96256.00;;;5.20;100.00
28606;BME280;46498;49.968;7.754;2022-11-20T15:51:49;96253.00;;;5.24;100.00
28606;BME280;46498;49.968;7.754;2022-11-20T15:56:50;96243.00;;;5.28;100.00
28606;BME280;46498;49.968;7.754;2022-11-20T16:01:54;96236.00;;;5.16;100.00
28606;BME280;46498;49.968;7.754;2022-11-20T16:06:59;96232.00;;;4.98;100.00
28606;BME280;46498;49.968;7.754;2022-11-20T16:12:03;96218.00;;;4.91;100.00
28606;BME280;46498;49.968;7.754;2022-11-20T16:17:07;96216.00;;;4.79;100.00
28606;BME280;46498;49.968;7.754;2022-11-20T16:22:11;96216.00;;;4.84;100.00
28606;BME280;46498;49.968;7.754;2022-11-20T16:27:13;96202.00;;;4.75;100.00
28606;BME280;46498;49.968;7.754;2022-11-20T16:32:18;96193.00;;;4.68;100.00
28606;BME280;46498;49.968;7.754;2022-11-20T16:37:24;96193.00;;;4.81;100.00
28606;BME280;46498;49.968;7.754;2022-11-20T16:42:35;96192.00;;;4.71;100.00
28606;BME280;46498;49.968;7.754;2022-11-20T16:47:37;96184.00;;;4.62;100.00
28606;BME280;46498;49.968;7.754;2022-11-20T16:52:39;96165.00;;;4.50;100.00
28606;BME280;46498;49.968;7.754;2022-11-20T16:57:42;96168.00;;;4.51;100.00
28606;BME280;46498;49.968;7.754;2022-11-20T17:02:45;96163.00;;;4.48;100.00
28606;BME280;46498;49.968;7.754;2022-11-20T17:07:47;96154.00;;;4.39;100.00
28606;BME280;46498;49.968;7.754;2022-11-20T17:12:49;96136.00;;;4.30;100.00
28606;BME280;46498;49.968;7.754;2022-11-20T17:17:51;96140.00;;;4.40;100.00
28606;BME280;46498;49.968;7.754;2022-11-20T17:22:52;96124.00;;;4.41;100.00
28606;BME280;46498;49.968;7.754;2022-11-20T17:27:54;96115.00;;;4.31;100.00
28606;BME280;46498;49.968;7.754;2022-11-20T17:33:08;96119.00;;;4.34;100.00
28606;BME280;46498;49.968;7.754;2022-11-20T17:38:16;96125.00;;;4.27;100.00
28606;BME280;46498;49.968;7.754;2022-11-20T17:43:23;96115.00;;;4.31;100.00
28606;BME280;46498;49.968;7.754;2022-11-20T17:48:37;96121.00;;;4.19;100.00
28606;BME280;46498;49.968;7.754;2022-11-20T17:53:57;96105.00;;;4.16;100.00
28606;BME280;46498;49.968;7.754;2022-11-20T17:59:11;96111.00;;;4.11;100.00
28606;BME280;46498;49.968;7.754;2022-11-20T18:04:23;96100.00;;;4.06;100.00
28606;BME280;46498;49.968;7.754;2022-11-20T18:09:28;96095.00;;;3.97;100.00
28606;BME280;46498;49.968;7.754;2022-11-20T18:14:35;96069.00;;;3.93;100.00
28606;BME280;46498;49.968;7.754;2022-11-20T18:19:44;96080.00;;;3.91;100.00
28606;BME280;46498;49.968;7.754;2022-11-20T18:25:26;96068.00;;;3.77;100.00
28606;BME280;46498;49.968;7.754;2022-11-20T18:30:35;96087.00;;;3.89;100.00
28606;BME280;46498;49.968;7.754;2022-11-20T18:35:39;96069.00;;;3.81;100.00
28606;BME280;46498;49.968;7.754;2022-11-20T18:40:47;96076.00;;;3.83;100.00
28606;BME280;46498;49.968;7.754;2022-11-20T18:46:01;96069.00;;;3.82;100.00
28606;BME280;46498;49.968;7.754;2022-11-20T18:51:05;96065.00;;;3.95;100.00
28606;BME280;46498;49.968;7.754;2022-11-20T18:56:08;96056.00;;;3.86;100.00
28606;BME280;46498;49.968;7.754;2022-11-20T19:01:09;96050.00;;;3.82;100.00
28606;BME280;46498;49.968;7.754;2022-11-20T19:06:14;96043.00;;;3.85;100.00
28606;BME280;46498;49.968;7.754;2022-11-20T19:11:16;96038.00;;;3.90;100.00
28606;BME280;46498;49.968;7.754;2022-11-20T19:16:19;96035.00;;;3.95;100.00
28606;BME280;46498;49.968;7.754;2022-11-20T19:21:23;96033.00;;;3.99;100.00
28606;BME280;46498;49.968;7.754;2022-11-20T19:26:24;96028.00;;;3.99;100.00
28606;BME280;46498;49.968;7.754;2022-11-20T19:31:25;96026.00;;;4.02;100.00
28606;BME280;46498;49.968;7.754;2022-11-20T19:36:29;96026.00;;;4.12;100.00
28606;BME280;46498;49.968;7.754;2022-11-20T19:41:32;96013.00;;;4.16;100.00
28606;BME280;46498;49.968;7.754;2022-11-20T19:46:35;96018.00;;;4.14;100.00
28606;BME280;46498;49.968;7.754;2022-11-20T19:51:37;96019.00;;;4.11;100.00
28606;BME280;46498;49.968;7.754;2022-11-20T19:56:38;96004.00;;;4.01;100.00
28606;BME280;46498;49.968;7.754;2022-11-20T20:01:39;96000.00;;;4.04;100.00
28606;BME280;46498;49.968;7.754;2022-11-20T20:06:40;95997.00;;;4.04;100.00
28606;BME280;46498;49.968;7.754;2022-11-20T20:11:44;96005.00;;;4.04;100.00
28606;BME280;46498;49.968;7.754;2022-11-20T20:16:46;95991.00;;;4.04;100.00
28606;BME280;46498;49.968;7.754;2022-11-20T20:21:47;95998.00;;;4.08;100.00
28606;BME280;46498;49.968;7.754;2022-11-20T20:26:49;96001.00;;;4.15;100.00
28606;BME280;46498;49.968;7.754;2022-11-20T20:31:56;96010.00;;;4.10;100.00
28606;BME280;46498;49.968;7.754;2022-11-20T20:36:56;96016.00;;;4.09;100.00
28606;BME280;46498;49.968;7.754;2022-11-20T20:41:57;96010.00;;;4.12;100.00
28606;BME280;46498;49.968;7.754;2022-11-20T20:46:58;96011.00;;;4.16;100.00
28606;BME280;46498;49.968;7.754;2022-11-20T20:51:59;96008.00;;;4.23;100.00
28606;BME280;46498;49.968;7.754;2022-11-20T20:57:01;96014.00;;;4.27;100.00
28606;BME280;46498;49.968;7.754;2022-11-20T21:02:02;96013.00;;;4.29;100.00
28606;BME280;46498;49.968;7.754;2022-11-20T21:07:04;96018.00;;;4.40;100.00
28606;BME280;46498;49.968;7.754;2022-11-20T21:12:05;96007.00;;;4.49;100.00
28606;BME280;46498;49.968;7.754;2022-11-20T21:17:06;96010.00;;;4.54;100.00
28606;BME280;46498;49.968;7.754;2022-11-20T21:22:14;96011.00;;;4.51;100.00
28606;BME280;46498;49.968;7.754;2022-11-20T21:27:15;96000.00;;;4.56;100.00
28606;BME280;46498;49.968;7.754;2022-11-20T21:32:15;95998.00;;;4.60;100.00
28606;BME280;46498;49.968;7.754;2022-11-20T21:37:16;96005.00;;;4.62;100.00
28606;BME280;46498;49.968;7.754;2022-11-20T21:42:17;96005.00;;;4.65;100.00
28606;BME280;46498;49.968;7.754;2022-11-20T21:47:18;96010.00;;;4.66;100.00
28606;BME280;46498;49.968;7.754;2022-11-20T21:52:19;96024.00;;;4.61;100.00
28606;BME280;46498;49.968;7.754;2022-11-20T21:57:19;96022.00;;;4.64;100.00
28606;BME280;46498;49.968;7.754;2022-11-20T22:02:20;96034.00;;;4.54;100.00
28606;BME280;46498;49.968;7.754;2022-11-20T22:07:21;96034.00;;;4.12;100.00
28606;BME280;46498;49.968;7.754;2022-11-20T22:12:22;96015.00;;;3.93;100.00
28606;BME280;46498;49.968;7.754;2022-11-20T22:17:23;96012.00;;;3.92;100.00
28606;BME280;46498;49.968;7.754;2022-11-20T22:23:12;96018.00;;;3.88;100.00
28606;BME280;46498;49.968;7.754;2022-11-20T22:28:13;96011.00;;;3.90;100.00
28606;BME280;46498;49.968;7.754;2022-11-20T22:33:13;96019.00;;;3.86;100.00
28606;BME280;46498;49.968;7.754;2022-11-20T22:38:14;96010.00;;;3.86;100.00
28606;BME280;46498;49.968;7.754;2022-11-20T22:43:15;96038.00;;;3.83;100.00
28606;BME280;46498;49.968;7.754;2022-11-20T22:48:16;96032.00;;;3.88;100.00
28606;BME280;46498;49.968;7.754;2022-11-20T22:53:17;96046.00;;;3.88;100.00
28606;BME280;46498;49.968;7.754;2022-11-20T22:58:18;96017.00;;;3.87;100.00
28606;BME280;46498;49.968;7.754;2022-11-20T23:03:18;96031.00;;;3.74;100.00
28606;BME280;46498;49.968;7.754;2022-11-20T23:08:20;96015.00;;;3.70;100.00
28606;BME280;46498;49.968;7.754;2022-11-20T23:13:20;96025.00;;;3.67;100.00
28606;BME280;46498;49.968;7.754;2022-11-20T23:18:21;96023.00;;;3.79;100.00
28606;BME280;46498;49.968;7.754;2022-11-20T23:23:22;96027.00;;;3.83;100.00
28606;BME280;46498;49.968;7.754;2022-11-20T23:28:23;96037.00;;;3.84;100.00
28606;BME280;46498;49.968;7.754;2022-11-20T23:33:24;96028.00;;;3.87;100.00
28606;BME280;46498;49.968;7.754;2022-11-20T23:38:24;96029.00;;;3.86;100.00
28606;BME280;46498;49.968;7.754;2022-11-20T23:43:25;96028.00;;;3.85;100.00
28606;BME280;46498;49.968;7.754;2022-11-20T23:48:35;96023.00;;;3.75;100.00
28606;BME280;46498;49.968;7.754;2022-11-20T23:53:36;96017.00;;;3.73;100.00
28606;BME280;46498;49.968;7.754;2022-11-20T23:58:37;96019.00;;;3.74;100.00
